sensor_id;sensor_type;location;lat;lon;timestamp;P1;durP1;ratioP1;P2;durP2;ratioP2
32152;SDS011;18656;50.580;11.392;2023-12-29T00:02:07;1.08;;;0.38;;
32152;SDS011;18656;50.580;11.392;2023-12-29T00:04:35;0.30;;;0.30;;
32152;SDS011;18656;50.580;11.392;2023-12-29T00:07:02;0.30;;;0.30;;
32152;SDS011;18656;50.580;11.392;2023-12-29T00:09:29;0.40;;;0.40;;
32152;SDS011;18656;50.580;11.392;2023-12-29T00:12:04;0.52;;;0.30;;
32152;SDS011;18656;50.580;11.392;2023-12-29T00:14:32;4.85;;;0.40;;
32152;SDS011;18656;50.580;11.392;2023-12-29T00:16:59;0.40;;;0.35;;
32152;SDS011;18656;50.580;11.392;2023-12-29T00:19:27;0.40;;;0.40;;
32152;SDS011;18656;50.580;11.392;2023-12-29T00:21:54;0.22;;;0.22;;
32152;SDS011;18656;50.580;11.392;2023-12-29T00:24:21;0.30;;;0.30;;
32152;SDS011;18656;50.580;11.392;2023-12-29T00:26:49;0.68;;;0.30;;
32152;SDS011;18656;50.580;11.392;2023-12-29T00:29:16;0.50;;;0.40;;
32152;SDS011;18656;50.580;11.392;2023-12-29T00:31:43;0.40;;;0.30;;
32152;SDS011;18656;50.580;11.392;2023-12-29T00:34:11;0.30;;;0.30;;
32152;SDS011;18656;50.580;11.392;2023-12-29T00:36:38;0.57;;;0.50;;
32152;SDS011;18656;50.580;11.392;2023-12-29T00:39:05;0.30;;;0.30;;
32152;SDS011;18656;50.580;11.392;2023-12-29T00:41:32;0.20;;;0.20;;
32152;SDS011;18656;50.580;11.392;2023-12-29T00:44:00;0.40;;;0.40;;
32152;SDS011;18656;50.580;11.392;2023-12-29T00:46:27;0.38;;;0.30;;
32152;SDS011;18656;50.580;11.392;2023-12-29T00:48:54;0.22;;;0.22;;
32152;SDS011;18656;50.580;11.392;2023-12-29T00:51:23;0.40;;;0.40;;
32152;SDS011;18656;50.580;11.392;2023-12-29T00:53:50;0.40;;;0.40;;
32152;SDS011;18656;50.580;11.392;2023-12-29T00:56:17;0.22;;;0.22;;
32152;SDS011;18656;50.580;11.392;2023-12-29T00:58:45;0.28;;;0.28;;
32152;SDS011;18656;50.580;11.392;2023-12-29T01:01:12;1.35;;;0.30;;
32152;SDS011;18656;50.580;11.392;2023-12-29T01:03:40;0.60;;;0.30;;
32152;SDS011;18656;50.580;11.392;2023-12-29T01:06:08;0.90;;;0.40;;
32152;SDS011;18656;50.580;11.392;2023-12-29T01:08:35;0.30;;;0.30;;
32152;SDS011;18656;50.580;11.392;2023-12-29T01:11:03;0.65;;;0.47;;
32152;SDS011;18656;50.580;11.392;2023-12-29T01:13:33;2.35;;;0.32;;
32152;SDS011;18656;50.580;11.392;2023-12-29T01:16:00;0.30;;;0.30;;
32152;SDS011;18656;50.580;11.392;2023-12-29T01:18:27;0.40;;;0.20;;
32152;SDS011;18656;50.580;11.392;2023-12-29T01:20:55;0.40;;;0.38;;
32152;SDS011;18656;50.580;11.392;2023-12-29T01:23:22;0.30;;;0.30;;
32152;SDS011;18656;50.580;11.392;2023-12-29T01:25:49;0.68;;;0.30;;
32152;SDS011;18656;50.580;11.392;2023-12-29T01:28:17;0.30;;;0.30;;
32152;SDS011;18656;50.580;11.392;2023-12-29T01:30:44;0.40;;;0.40;;
32152;SDS011;18656;50.580;11.392;2023-12-29T01:33:11;0.30;;;0.30;;
32152;SDS011;18656;50.580;11.392;2023-12-29T01:35:39;0.32;;;0.32;;
32152;SDS011;18656;50.580;11.392;2023-12-29T01:38:06;1.25;;;0.73;;
32152;SDS011;18656;50.580;11.392;2023-12-29T01:40:41;0.50;;;0.50;;
32152;SDS011;18656;50.580;11.392;2023-12-29T01:43:09;1.50;;;0.50;;
32152;SDS011;18656;50.580;11.392;2023-12-29T01:45:36;0.65;;;0.60;;
32152;SDS011;18656;50.580;11.392;2023-12-29T01:48:18;0.45;;;0.45;;
32152;SDS011;18656;50.580;11.392;2023-12-29T01:50:45;0.40;;;0.40;;
32152;SDS011;18656;50.580;11.392;2023-12-29T01:53:12;1.27;;;0.50;;
32152;SDS011;18656;50.580;11.392;2023-12-29T01:55:40;0.30;;;0.30;;
32152;SDS011;18656;50.580;11.392;2023-12-29T01:58:08;0.40;;;0.40;;
32152;SDS011;18656;50.580;11.392;2023-12-29T02:00:36;0.52;;;0.52;;
32152;SDS011;18656;50.580;11.392;2023-12-29T02:03:03;0.40;;;0.40;;
32152;SDS011;18656;50.580;11.392;2023-12-29T02:05:30;0.50;;;0.50;;
32152;SDS011;18656;50.580;11.392;2023-12-29T02:08:00;0.40;;;0.40;;
32152;SDS011;18656;50.580;11.392;2023-12-29T02:10:31;0.40;;;0.40;;
32152;SDS011;18656;50.580;11.392;2023-12-29T02:12:58;0.40;;;0.40;;
32152;SDS011;18656;50.580;11.392;2023-12-29T02:15:26;0.50;;;0.50;;
32152;SDS011;18656;50.580;11.392;2023-12-29T02:17:56;0.60;;;0.60;;
32152;SDS011;18656;50.580;11.392;2023-12-29T02:20:27;2.58;;;0.50;;
32152;SDS011;18656;50.580;11.392;2023-12-29T02:22:54;0.50;;;0.50;;
32152;SDS011;18656;50.580;11.392;2023-12-29T02:25:21;0.50;;;0.50;;
32152;SDS011;18656;50.580;11.392;2023-12-29T02:35:23;0.60;;;0.60;;
32152;SDS011;18656;50.580;11.392;2023-12-29T02:37:52;1.08;;;0.70;;
32152;SDS011;18656;50.580;11.392;2023-12-29T02:40:20;0.57;;;0.57;;
32152;SDS011;18656;50.580;11.392;2023-12-29T02:42:48;0.80;;;0.60;;
32152;SDS011;18656;50.580;11.392;2023-12-29T02:45:15;0.80;;;0.80;;
32152;SDS011;18656;50.580;11.392;2023-12-29T02:47:43;1.08;;;0.70;;
32152;SDS011;18656;50.580;11.392;2023-12-29T02:50:11;2.53;;;0.63;;
32152;SDS011;18656;50.580;11.392;2023-12-29T02:52:38;1.13;;;0.82;;
32152;SDS011;18656;50.580;11.392;2023-12-29T02:55:06;0.63;;;0.63;;
32152;SDS011;18656;50.580;11.392;2023-12-29T02:57:33;1.05;;;0.80;;
32152;SDS011;18656;50.580;11.392;2023-12-29T03:00:01;1.98;;;0.90;;
32152;SDS011;18656;50.580;11.392;2023-12-29T03:02:30;1.10;;;0.95;;
32152;SDS011;18656;50.580;11.392;2023-12-29T03:04:57;0.80;;;0.80;;
32152;SDS011;18656;50.580;11.392;2023-12-29T03:07:24;2.17;;;0.80;;
32152;SDS011;18656;50.580;11.392;2023-12-29T03:09:52;1.15;;;0.82;;
32152;SDS011;18656;50.580;11.392;2023-12-29T03:12:19;0.82;;;0.70;;
32152;SDS011;18656;50.580;11.392;2023-12-29T03:14:46;1.67;;;0.88;;
32152;SDS011;18656;50.580;11.392;2023-12-29T03:17:13;1.00;;;0.70;;
32152;SDS011;18656;50.580;11.392;2023-12-29T03:19:41;0.82;;;0.82;;
32152;SDS011;18656;50.580;11.392;2023-12-29T03:22:09;3.25;;;0.80;;
32152;SDS011;18656;50.580;11.392;2023-12-29T03:24:36;1.33;;;0.77;;
32152;SDS011;18656;50.580;11.392;2023-12-29T03:27:04;1.58;;;0.90;;
32152;SDS011;18656;50.580;11.392;2023-12-29T03:29:31;0.85;;;0.85;;
32152;SDS011;18656;50.580;11.392;2023-12-29T03:31:58;1.20;;;1.08;;
32152;SDS011;18656;50.580;11.392;2023-12-29T03:34:25;0.88;;;0.88;;
32152;SDS011;18656;50.580;11.392;2023-12-29T03:36:53;1.90;;;0.98;;
32152;SDS011;18656;50.580;11.392;2023-12-29T03:39:20;1.00;;;1.00;;
32152;SDS011;18656;50.580;11.392;2023-12-29T03:41:47;1.55;;;1.00;;
32152;SDS011;18656;50.580;11.392;2023-12-29T03:44:15;1.00;;;1.00;;
32152;SDS011;18656;50.580;11.392;2023-12-29T03:46:43;1.13;;;0.80;;
32152;SDS011;18656;50.580;11.392;2023-12-29T03:49:10;0.80;;;0.80;;
32152;SDS011;18656;50.580;11.392;2023-12-29T03:51:38;1.45;;;1.00;;
32152;SDS011;18656;50.580;11.392;2023-12-29T03:54:05;0.88;;;0.88;;
32152;SDS011;18656;50.580;11.392;2023-12-29T03:56:32;0.85;;;0.85;;
32152;SDS011;18656;50.580;11.392;2023-12-29T03:58:59;1.02;;;0.90;;
32152;SDS011;18656;50.580;11.392;2023-12-29T04:01:26;1.33;;;1.00;;
32152;SDS011;18656;50.580;11.392;2023-12-29T04:03:55;1.38;;;1.08;;
32152;SDS011;18656;50.580;11.392;2023-12-29T04:06:22;4.22;;;1.38;;
32152;SDS011;18656;50.580;11.392;2023-12-29T04:08:49;2.10;;;1.10;;
32152;SDS011;18656;50.580;11.392;2023-12-29T04:11:16;1.35;;;1.08;;
32152;SDS011;18656;50.580;11.392;2023-12-29T04:13:43;1.75;;;0.93;;
32152;SDS011;18656;50.580;11.392;2023-12-29T04:16:11;1.77;;;1.10;;
32152;SDS011;18656;50.580;11.392;2023-12-29T04:18:38;0.80;;;0.80;;
32152;SDS011;18656;50.580;11.392;2023-12-29T04:21:05;1.10;;;1.00;;
32152;SDS011;18656;50.580;11.392;2023-12-29T04:23:35;1.08;;;0.98;;
32152;SDS011;18656;50.580;11.392;2023-12-29T04:26:02;2.58;;;1.17;;
32152;SDS011;18656;50.580;11.392;2023-12-29T04:28:29;1.15;;;0.90;;
32152;SDS011;18656;50.580;11.392;2023-12-29T04:30:56;1.02;;;0.70;;
32152;SDS011;18656;50.580;11.392;2023-12-29T04:33:24;1.85;;;0.80;;
32152;SDS011;18656;50.580;11.392;2023-12-29T04:35:51;3.03;;;0.90;;
32152;SDS011;18656;50.580;11.392;2023-12-29T04:38:18;3.25;;;1.10;;
32152;SDS011;18656;50.580;11.392;2023-12-29T04:40:46;1.60;;;1.00;;
32152;SDS011;18656;50.580;11.392;2023-12-29T04:43:13;2.80;;;0.88;;
32152;SDS011;18656;50.580;11.392;2023-12-29T04:45:40;1.38;;;1.00;;
32152;SDS011;18656;50.580;11.392;2023-12-29T04:48:08;1.63;;;1.00;;
32152;SDS011;18656;50.580;11.392;2023-12-29T04:50:35;2.17;;;2.00;;
32152;SDS011;18656;50.580;11.392;2023-12-29T04:53:02;1.23;;;0.90;;
32152;SDS011;18656;50.580;11.392;2023-12-29T04:55:30;0.70;;;0.70;;
32152;SDS011;18656;50.580;11.392;2023-12-29T04:57:57;1.20;;;0.90;;
32152;SDS011;18656;50.580;11.392;2023-12-29T05:00:25;0.70;;;0.70;;
32152;SDS011;18656;50.580;11.392;2023-12-29T05:02:52;1.73;;;1.10;;
32152;SDS011;18656;50.580;11.392;2023-12-29T05:05:19;2.03;;;0.98;;
32152;SDS011;18656;50.580;11.392;2023-12-29T05:07:46;1.52;;;1.00;;
32152;SDS011;18656;50.580;11.392;2023-12-29T05:10:13;0.88;;;0.88;;
32152;SDS011;18656;50.580;11.392;2023-12-29T05:12:41;1.00;;;0.82;;
32152;SDS011;18656;50.580;11.392;2023-12-29T05:15:08;2.53;;;1.10;;
32152;SDS011;18656;50.580;11.392;2023-12-29T05:17:35;2.92;;;1.00;;
32152;SDS011;18656;50.580;11.392;2023-12-29T05:20:03;2.75;;;1.15;;
32152;SDS011;18656;50.580;11.392;2023-12-29T05:22:30;1.20;;;1.10;;
32152;SDS011;18656;50.580;11.392;2023-12-29T05:24:58;1.50;;;0.85;;
32152;SDS011;18656;50.580;11.392;2023-12-29T05:27:26;4.65;;;0.98;;
32152;SDS011;18656;50.580;11.392;2023-12-29T05:29:53;1.55;;;1.00;;
32152;SDS011;18656;50.580;11.392;2023-12-29T05:32:21;2.20;;;1.02;;
32152;SDS011;18656;50.580;11.392;2023-12-29T05:34:48;1.10;;;1.00;;
32152;SDS011;18656;50.580;11.392;2023-12-29T05:37:16;1.67;;;1.02;;
32152;SDS011;18656;50.580;11.392;2023-12-29T05:39:43;3.00;;;1.05;;
32152;SDS011;18656;50.580;11.392;2023-12-29T05:42:10;2.90;;;1.35;;
32152;SDS011;18656;50.580;11.392;2023-12-29T05:44:38;2.08;;;1.15;;
32152;SDS011;18656;50.580;11.392;2023-12-29T05:47:05;3.22;;;0.93;;
32152;SDS011;18656;50.580;11.392;2023-12-29T05:49:32;2.78;;;1.17;;
32152;SDS011;18656;50.580;11.392;2023-12-29T05:52:05;1.63;;;1.23;;
32152;SDS011;18656;50.580;11.392;2023-12-29T05:54:32;2.35;;;1.17;;
32152;SDS011;18656;50.580;11.392;2023-12-29T05:57:00;0.88;;;0.88;;
32152;SDS011;18656;50.580;11.392;2023-12-29T05:59:27;1.27;;;1.17;;
32152;SDS011;18656;50.580;11.392;2023-12-29T06:01:54;1.20;;;1.10;;
32152;SDS011;18656;50.580;11.392;2023-12-29T06:04:23;1.08;;;0.93;;
32152;SDS011;18656;50.580;11.392;2023-12-29T06:06:50;3.10;;;1.27;;
32152;SDS011;18656;50.580;11.392;2023-12-29T06:09:17;1.55;;;1.02;;
32152;SDS011;18656;50.580;11.392;2023-12-29T06:11:45;1.15;;;1.13;;
32152;SDS011;18656;50.580;11.392;2023-12-29T06:14:12;1.25;;;1.20;;
32152;SDS011;18656;50.580;11.392;2023-12-29T06:16:39;2.63;;;1.30;;
32152;SDS011;18656;50.580;11.392;2023-12-29T06:19:07;2.63;;;1.10;;
32152;SDS011;18656;50.580;11.392;2023-12-29T06:21:40;1.50;;;1.40;;
32152;SDS011;18656;50.580;11.392;2023-12-29T06:24:08;2.55;;;1.20;;
32152;SDS011;18656;50.580;11.392;2023-12-29T06:26:35;2.85;;;1.60;;
32152;SDS011;18656;50.580;11.392;2023-12-29T06:29:07;1.92;;;1.20;;
32152;SDS011;18656;50.580;11.392;2023-12-29T06:31:34;1.40;;;1.30;;
32152;SDS011;18656;50.580;11.392;2023-12-29T06:34:02;1.20;;;1.10;;
32152;SDS011;18656;50.580;11.392;2023-12-29T06:36:29;1.30;;;1.20;;
32152;SDS011;18656;50.580;11.392;2023-12-29T06:38:57;1.70;;;1.60;;
32152;SDS011;18656;50.580;11.392;2023-12-29T06:41:24;3.33;;;1.30;;
32152;SDS011;18656;50.580;11.392;2023-12-29T06:43:51;1.38;;;1.38;;
32152;SDS011;18656;50.580;11.392;2023-12-29T06:46:18;2.03;;;1.42;;
32152;SDS011;18656;50.580;11.392;2023-12-29T06:48:46;1.33;;;1.17;;
32152;SDS011;18656;50.580;11.392;2023-12-29T06:51:17;1.88;;;1.25;;
32152;SDS011;18656;50.580;11.392;2023-12-29T06:53:45;2.72;;;1.30;;
32152;SDS011;18656;50.580;11.392;2023-12-29T06:56:16;1.80;;;1.40;;
32152;SDS011;18656;50.580;11.392;2023-12-29T06:58:46;4.03;;;1.17;;
32152;SDS011;18656;50.580;11.392;2023-12-29T07:01:14;4.47;;;1.35;;
32152;SDS011;18656;50.580;11.392;2023-12-29T07:03:42;2.60;;;1.35;;
32152;SDS011;18656;50.580;11.392;2023-12-29T07:06:10;1.67;;;1.25;;
32152;SDS011;18656;50.580;11.392;2023-12-29T07:08:38;1.88;;;1.50;;
32152;SDS011;18656;50.580;11.392;2023-12-29T07:11:09;2.83;;;1.20;;
32152;SDS011;18656;50.580;11.392;2023-12-29T07:13:37;1.40;;;1.30;;
32152;SDS011;18656;50.580;11.392;2023-12-29T07:16:05;2.53;;;1.38;;
32152;SDS011;18656;50.580;11.392;2023-12-29T07:18:32;1.20;;;1.10;;
32152;SDS011;18656;50.580;11.392;2023-12-29T07:21:00;3.45;;;1.10;;
32152;SDS011;18656;50.580;11.392;2023-12-29T07:23:27;1.15;;;1.00;;
32152;SDS011;18656;50.580;11.392;2023-12-29T07:25:54;1.65;;;1.10;;
32152;SDS011;18656;50.580;11.392;2023-12-29T07:28:22;1.42;;;1.33;;
32152;SDS011;18656;50.580;11.392;2023-12-29T07:30:49;1.42;;;1.23;;
32152;SDS011;18656;50.580;11.392;2023-12-29T07:33:16;1.17;;;0.90;;
32152;SDS011;18656;50.580;11.392;2023-12-29T07:35:44;4.28;;;1.30;;
32152;SDS011;18656;50.580;11.392;2023-12-29T07:38:11;3.80;;;1.10;;
32152;SDS011;18656;50.580;11.392;2023-12-29T07:40:38;1.33;;;1.15;;
32152;SDS011;18656;50.580;11.392;2023-12-29T07:43:05;1.30;;;1.00;;
32152;SDS011;18656;50.580;11.392;2023-12-29T07:45:33;1.65;;;1.00;;
32152;SDS011;18656;50.580;11.392;2023-12-29T07:48:03;1.40;;;1.00;;
32152;SDS011;18656;50.580;11.392;2023-12-29T07:50:35;6.38;;;1.05;;
32152;SDS011;18656;50.580;11.392;2023-12-29T07:53:03;2.15;;;1.20;;
32152;SDS011;18656;50.580;11.392;2023-12-29T07:55:32;2.15;;;0.88;;
32152;SDS011;18656;50.580;11.392;2023-12-29T07:57:59;2.13;;;1.20;;
32152;SDS011;18656;50.580;11.392;2023-12-29T08:00:27;1.77;;;1.08;;
32152;SDS011;18656;50.580;11.392;2023-12-29T08:02:54;1.20;;;1.05;;
32152;SDS011;18656;50.580;11.392;2023-12-29T08:05:21;1.77;;;1.00;;
32152;SDS011;18656;50.580;11.392;2023-12-29T08:07:48;1.38;;;1.13;;
32152;SDS011;18656;50.580;11.392;2023-12-29T08:10:15;2.88;;;1.30;;
32152;SDS011;18656;50.580;11.392;2023-12-29T08:12:43;2.05;;;1.38;;
32152;SDS011;18656;50.580;11.392;2023-12-29T08:15:10;1.63;;;1.20;;
32152;SDS011;18656;50.580;11.392;2023-12-29T08:17:38;1.08;;;1.08;;
32152;SDS011;18656;50.580;11.392;2023-12-29T08:20:05;2.58;;;0.98;;
32152;SDS011;18656;50.580;11.392;2023-12-29T08:22:33;1.30;;;1.20;;
32152;SDS011;18656;50.580;11.392;2023-12-29T08:25:00;2.22;;;1.42;;
32152;SDS011;18656;50.580;11.392;2023-12-29T08:27:27;2.50;;;1.00;;
32152;SDS011;18656;50.580;11.392;2023-12-29T08:29:55;2.58;;;0.98;;
32152;SDS011;18656;50.580;11.392;2023-12-29T08:32:22;2.15;;;1.13;;
32152;SDS011;18656;50.580;11.392;2023-12-29T08:34:49;2.95;;;1.10;;
32152;SDS011;18656;50.580;11.392;2023-12-29T08:37:17;4.18;;;1.75;;
32152;SDS011;18656;50.580;11.392;2023-12-29T08:39:47;2.03;;;1.20;;
32152;SDS011;18656;50.580;11.392;2023-12-29T08:42:14;1.67;;;1.00;;
32152;SDS011;18656;50.580;11.392;2023-12-29T08:44:42;2.85;;;1.05;;
32152;SDS011;18656;50.580;11.392;2023-12-29T08:47:09;4.38;;;2.28;;
32152;SDS011;18656;50.580;11.392;2023-12-29T08:49:37;2.88;;;1.10;;
32152;SDS011;18656;50.580;11.392;2023-12-29T08:52:05;1.02;;;1.00;;
32152;SDS011;18656;50.580;11.392;2023-12-29T08:54:32;1.67;;;1.30;;
32152;SDS011;18656;50.580;11.392;2023-12-29T08:57:00;1.88;;;1.10;;
32152;SDS011;18656;50.580;11.392;2023-12-29T08:59:27;7.43;;;1.10;;
32152;SDS011;18656;50.580;11.392;2023-12-29T09:01:54;5.88;;;1.20;;
32152;SDS011;18656;50.580;11.392;2023-12-29T09:04:22;1.00;;;0.98;;
32152;SDS011;18656;50.580;11.392;2023-12-29T09:06:49;2.65;;;1.25;;
32152;SDS011;18656;50.580;11.392;2023-12-29T09:09:16;1.27;;;1.25;;
32152;SDS011;18656;50.580;11.392;2023-12-29T09:11:44;2.30;;;1.20;;
32152;SDS011;18656;50.580;11.392;2023-12-29T09:14:11;1.70;;;1.20;;
32152;SDS011;18656;50.580;11.392;2023-12-29T09:16:38;4.35;;;1.30;;
32152;SDS011;18656;50.580;11.392;2023-12-29T09:19:10;4.38;;;1.27;;
32152;SDS011;18656;50.580;11.392;2023-12-29T09:21:40;2.33;;;1.30;;
32152;SDS011;18656;50.580;11.392;2023-12-29T09:24:07;1.75;;;1.00;;
32152;SDS011;18656;50.580;11.392;2023-12-29T09:26:34;0.90;;;0.90;;
32152;SDS011;18656;50.580;11.392;2023-12-29T09:29:02;1.85;;;1.10;;
32152;SDS011;18656;50.580;11.392;2023-12-29T09:31:29;1.90;;;1.13;;
32152;SDS011;18656;50.580;11.392;2023-12-29T09:33:56;1.20;;;1.10;;
32152;SDS011;18656;50.580;11.392;2023-12-29T09:36:24;1.63;;;1.15;;
32152;SDS011;18656;50.580;11.392;2023-12-29T09:38:51;1.48;;;1.25;;
32152;SDS011;18656;50.580;11.392;2023-12-29T09:41:20;2.45;;;1.10;;
32152;SDS011;18656;50.580;11.392;2023-12-29T09:43:50;1.30;;;1.20;;
32152;SDS011;18656;50.580;11.392;2023-12-29T09:46:20;2.03;;;1.27;;
32152;SDS011;18656;50.580;11.392;2023-12-29T09:48:50;1.50;;;1.40;;
32152;SDS011;18656;50.580;11.392;2023-12-29T09:51:19;4.57;;;1.23;;
32152;SDS011;18656;50.580;11.392;2023-12-29T09:53:50;3.35;;;1.08;;
32152;SDS011;18656;50.580;11.392;2023-12-29T09:56:18;2.15;;;1.30;;
32152;SDS011;18656;50.580;11.392;2023-12-29T09:58:46;1.20;;;1.20;;
32152;SDS011;18656;50.580;11.392;2023-12-29T10:01:14;7.00;;;1.48;;
32152;SDS011;18656;50.580;11.392;2023-12-29T10:03:46;2.33;;;1.48;;
32152;SDS011;18656;50.580;11.392;2023-12-29T10:06:16;2.05;;;1.10;;
32152;SDS011;18656;50.580;11.392;2023-12-29T10:08:47;1.42;;;1.05;;
32152;SDS011;18656;50.580;11.392;2023-12-29T10:11:18;2.95;;;1.20;;
32152;SDS011;18656;50.580;11.392;2023-12-29T10:13:46;1.52;;;1.42;;
32152;SDS011;18656;50.580;11.392;2023-12-29T10:16:15;1.80;;;1.25;;
32152;SDS011;18656;50.580;11.392;2023-12-29T10:18:48;3.20;;;1.15;;
32152;SDS011;18656;50.580;11.392;2023-12-29T10:21:22;1.38;;;1.20;;
32152;SDS011;18656;50.580;11.392;2023-12-29T10:23:52;1.50;;;1.17;;
32152;SDS011;18656;50.580;11.392;2023-12-29T10:26:21;2.38;;;1.00;;
32152;SDS011;18656;50.580;11.392;2023-12-29T10:28:49;3.22;;;1.40;;
32152;SDS011;18656;50.580;11.392;2023-12-29T10:31:17;2.08;;;1.17;;
32152;SDS011;18656;50.580;11.392;2023-12-29T10:33:44;0.90;;;0.90;;
32152;SDS011;18656;50.580;11.392;2023-12-29T10:36:17;1.10;;;0.80;;
32152;SDS011;18656;50.580;11.392;2023-12-29T10:38:44;1.13;;;0.93;;
32152;SDS011;18656;50.580;11.392;2023-12-29T10:41:12;0.93;;;0.88;;
32152;SDS011;18656;50.580;11.392;2023-12-29T10:43:40;0.80;;;0.80;;
32152;SDS011;18656;50.580;11.392;2023-12-29T10:46:09;1.63;;;0.90;;
32152;SDS011;18656;50.580;11.392;2023-12-29T10:48:37;2.70;;;0.98;;
32152;SDS011;18656;50.580;11.392;2023-12-29T10:51:05;1.95;;;1.00;;
32152;SDS011;18656;50.580;11.392;2023-12-29T10:53:33;0.77;;;0.70;;
32152;SDS011;18656;50.580;11.392;2023-12-29T10:56:09;4.65;;;1.00;;
32152;SDS011;18656;50.580;11.392;2023-12-29T10:58:46;2.33;;;0.95;;
32152;SDS011;18656;50.580;11.392;2023-12-29T11:01:24;3.80;;;1.20;;
32152;SDS011;18656;50.580;11.392;2023-12-29T11:03:58;2.47;;;0.73;;
32152;SDS011;18656;50.580;11.392;2023-12-29T11:06:27;2.13;;;0.88;;
32152;SDS011;18656;50.580;11.392;2023-12-29T11:08:55;1.85;;;0.80;;
32152;SDS011;18656;50.580;11.392;2023-12-29T11:11:23;0.70;;;0.70;;
32152;SDS011;18656;50.580;11.392;2023-12-29T11:13:52;2.65;;;0.80;;
32152;SDS011;18656;50.580;11.392;2023-12-29T11:16:20;1.17;;;0.70;;
32152;SDS011;18656;50.580;11.392;2023-12-29T11:18:49;0.95;;;0.70;;
32152;SDS011;18656;50.580;11.392;2023-12-29T11:21:18;1.75;;;0.82;;
32152;SDS011;18656;50.580;11.392;2023-12-29T11:23:46;1.15;;;0.70;;
32152;SDS011;18656;50.580;11.392;2023-12-29T11:26:14;0.93;;;0.70;;
32152;SDS011;18656;50.580;11.392;2023-12-29T11:28:43;1.60;;;0.70;;
32152;SDS011;18656;50.580;11.392;2023-12-29T11:31:10;3.22;;;0.73;;
32152;SDS011;18656;50.580;11.392;2023-12-29T11:33:39;1.25;;;0.70;;
32152;SDS011;18656;50.580;11.392;2023-12-29T11:44:13;1.23;;;0.90;;
32152;SDS011;18656;50.580;11.392;2023-12-29T11:46:51;1.90;;;0.85;;
32152;SDS011;18656;50.580;11.392;2023-12-29T11:49:20;1.08;;;0.60;;
32152;SDS011;18656;50.580;11.392;2023-12-29T11:51:47;1.27;;;0.90;;
32152;SDS011;18656;50.580;11.392;2023-12-29T11:54:24;1.45;;;0.70;;
32152;SDS011;18656;50.580;11.392;2023-12-29T11:56:52;1.90;;;0.60;;
32152;SDS011;18656;50.580;11.392;2023-12-29T11:59:20;1.48;;;0.65;;
32152;SDS011;18656;50.580;11.392;2023-12-29T12:01:49;0.98;;;0.40;;
32152;SDS011;18656;50.580;11.392;2023-12-29T12:07:05;4.70;;;0.70;;
32152;SDS011;18656;50.580;11.392;2023-12-29T12:09:34;0.95;;;0.60;;
32152;SDS011;18656;50.580;11.392;2023-12-29T12:12:02;2.05;;;0.75;;
32152;SDS011;18656;50.580;11.392;2023-12-29T12:14:46;1.58;;;0.98;;
32152;SDS011;18656;50.580;11.392;2023-12-29T12:17:31;2.42;;;0.70;;
32152;SDS011;18656;50.580;11.392;2023-12-29T12:20:08;0.95;;;0.63;;
32152;SDS011;18656;50.580;11.392;2023-12-29T12:22:36;2.95;;;0.60;;
32152;SDS011;18656;50.580;11.392;2023-12-29T12:25:05;1.30;;;0.68;;
32152;SDS011;18656;50.580;11.392;2023-12-29T12:27:37;0.80;;;0.60;;
32152;SDS011;18656;50.580;11.392;2023-12-29T12:30:04;0.68;;;0.63;;
32152;SDS011;18656;50.580;11.392;2023-12-29T12:32:32;1.15;;;0.70;;
32152;SDS011;18656;50.580;11.392;2023-12-29T12:34:59;1.75;;;1.15;;
32152;SDS011;18656;50.580;11.392;2023-12-29T12:37:27;1.05;;;0.77;;
32152;SDS011;18656;50.580;11.392;2023-12-29T12:39:55;1.27;;;0.50;;
32152;SDS011;18656;50.580;11.392;2023-12-29T12:42:22;1.73;;;0.90;;
32152;SDS011;18656;50.580;11.392;2023-12-29T12:44:54;1.08;;;0.50;;
32152;SDS011;18656;50.580;11.392;2023-12-29T12:47:24;2.50;;;0.70;;
32152;SDS011;18656;50.580;11.392;2023-12-29T12:49:52;0.80;;;0.60;;
32152;SDS011;18656;50.580;11.392;2023-12-29T12:52:20;2.03;;;0.60;;
32152;SDS011;18656;50.580;11.392;2023-12-29T12:54:47;0.60;;;0.55;;
32152;SDS011;18656;50.580;11.392;2023-12-29T12:57:18;1.83;;;0.90;;
32152;SDS011;18656;50.580;11.392;2023-12-29T12:59:46;0.70;;;0.70;;
32152;SDS011;18656;50.580;11.392;2023-12-29T13:02:13;0.95;;;0.77;;
32152;SDS011;18656;50.580;11.392;2023-12-29T13:04:42;1.23;;;0.88;;
32152;SDS011;18656;50.580;11.392;2023-12-29T13:07:09;0.80;;;0.70;;
32152;SDS011;18656;50.580;11.392;2023-12-29T13:09:36;1.70;;;0.68;;
32152;SDS011;18656;50.580;11.392;2023-12-29T13:12:14;4.32;;;0.80;;
32152;SDS011;18656;50.580;11.392;2023-12-29T13:14:44;1.65;;;1.05;;
32152;SDS011;18656;50.580;11.392;2023-12-29T13:17:14;1.30;;;0.80;;
32152;SDS011;18656;50.580;11.392;2023-12-29T13:19:43;1.02;;;0.60;;
32152;SDS011;18656;50.580;11.392;2023-12-29T13:22:11;1.52;;;0.95;;
32152;SDS011;18656;50.580;11.392;2023-12-29T13:24:44;1.70;;;0.80;;
32152;SDS011;18656;50.580;11.392;2023-12-29T13:27:13;0.88;;;0.88;;
32152;SDS011;18656;50.580;11.392;2023-12-29T13:29:41;1.95;;;1.13;;
32152;SDS011;18656;50.580;11.392;2023-12-29T13:32:22;0.63;;;0.63;;
32152;SDS011;18656;50.580;11.392;2023-12-29T13:37:42;1.52;;;0.90;;
32152;SDS011;18656;50.580;11.392;2023-12-29T13:40:14;0.77;;;0.73;;
32152;SDS011;18656;50.580;11.392;2023-12-29T13:42:44;2.17;;;1.30;;
32152;SDS011;18656;50.580;11.392;2023-12-29T13:45:12;2.15;;;0.75;;
32152;SDS011;18656;50.580;11.392;2023-12-29T13:47:41;1.10;;;1.00;;
32152;SDS011;18656;50.580;11.392;2023-12-29T13:50:09;0.93;;;0.52;;
32152;SDS011;18656;50.580;11.392;2023-12-29T13:52:37;2.80;;;1.30;;
32152;SDS011;18656;50.580;11.392;2023-12-29T13:55:04;0.77;;;0.77;;
32152;SDS011;18656;50.580;11.392;2023-12-29T13:57:35;2.05;;;0.80;;
32152;SDS011;18656;50.580;11.392;2023-12-29T14:00:15;1.17;;;0.60;;
32152;SDS011;18656;50.580;11.392;2023-12-29T14:05:23;2.45;;;0.90;;
32152;SDS011;18656;50.580;11.392;2023-12-29T14:08:04;1.25;;;0.80;;
32152;SDS011;18656;50.580;11.392;2023-12-29T14:10:33;0.75;;;0.70;;
32152;SDS011;18656;50.580;11.392;2023-12-29T14:13:05;2.30;;;0.70;;
32152;SDS011;18656;50.580;11.392;2023-12-29T14:15:40;1.85;;;0.60;;
32152;SDS011;18656;50.580;11.392;2023-12-29T14:21:00;1.42;;;0.60;;
32152;SDS011;18656;50.580;11.392;2023-12-29T14:23:27;0.85;;;0.70;;
32152;SDS011;18656;50.580;11.392;2023-12-29T14:26:01;1.00;;;0.90;;
32152;SDS011;18656;50.580;11.392;2023-12-29T14:28:29;2.45;;;1.02;;
32152;SDS011;18656;50.580;11.392;2023-12-29T14:31:02;3.15;;;0.90;;
32152;SDS011;18656;50.580;11.392;2023-12-29T14:35:57;1.02;;;0.60;;
32152;SDS011;18656;50.580;11.392;2023-12-29T14:38:24;0.90;;;0.90;;
32152;SDS011;18656;50.580;11.392;2023-12-29T14:40:51;4.10;;;0.77;;
32152;SDS011;18656;50.580;11.392;2023-12-29T14:43:19;1.58;;;0.63;;
32152;SDS011;18656;50.580;11.392;2023-12-29T14:45:46;3.90;;;1.13;;
32152;SDS011;18656;50.580;11.392;2023-12-29T14:48:13;0.85;;;0.80;;
32152;SDS011;18656;50.580;11.392;2023-12-29T14:50:40;0.90;;;0.60;;
32152;SDS011;18656;50.580;11.392;2023-12-29T14:53:12;1.20;;;0.80;;
32152;SDS011;18656;50.580;11.392;2023-12-29T14:55:39;4.03;;;0.70;;
32152;SDS011;18656;50.580;11.392;2023-12-29T14:58:06;1.63;;;0.90;;
32152;SDS011;18656;50.580;11.392;2023-12-29T15:00:34;2.28;;;1.20;;
32152;SDS011;18656;50.580;11.392;2023-12-29T15:03:01;3.50;;;0.98;;
32152;SDS011;18656;50.580;11.392;2023-12-29T15:05:29;1.67;;;0.63;;
32152;SDS011;18656;50.580;11.392;2023-12-29T15:07:56;1.20;;;0.70;;
32152;SDS011;18656;50.580;11.392;2023-12-29T15:10:24;1.65;;;0.70;;